Terminal Aerodrome Forecast
Issued by NWS

Home | Current Version | Previous Version | Text Only | Print | Product List | Glossary On
Versions: 1 2 3 4 5 6 7 8 9 10 11 12 13 14 15 16 17 18 19 20 21
000
FTUS43 KIND 241129
TAFLAF
TAF
KLAF 241129Z 2412/2512 07008KT 4SM RA BR OVC006
     FM241800 08012KT 5SM -RA BR OVC008
     FM250000 10010KT 3SM RA BR VCTS OVC012CB
     FM250500 18013G21KT 5SM RA BR VCTS OVC008CB
     FM250700 21016G29KT 6SM -RA BKN015
     FM251100 26017G28KT P6SM -RA BKN070
      AMD LTD TO CLD VIS AND WIND TIL 241400=

USA.gov is the U.S. government's official web portal to all federal, state and local government web resources and services.